Time;durP1;ratioP1;P1;durP2;ratioP2;P2;SDS_P1;SDS_P2;PMS_P1;PMS_P2;Temp;Humidity;BMP_temperature;BMP_pressure;BME280_temperature;BME280_humidity;BME280_pressure;Samples;Min_cycle;Max_cycle;Signal;HPM_P1;HPM_P2
2022/12/27 05:04:42;;;;;;;2.80;1.20;;;;;;;18.74;64.74;97288.34;22502114;23;20268;-54
2022/12/27 05:14:40;;;;;;;3.10;1.53;;;;;;;18.74;64.98;97304.56;20076367;29;20217;-55
2022/12/27 05:34:57;;;;;;;1.83;1.00;;;;;;;18.72;64.67;97322.94;20074182;29;20247;-51
2022/12/27 05:44:58;;;;;;;1.77;1.35;;;;;;;18.72;64.60;97323.75;20072405;29;20771;-52
2022/12/27 05:54:56;;;;;;;2.50;1.23;;;;;;;18.71;64.47;97340.28;20073816;29;20241;-53
2022/12/27 06:04:55;;;;;;;1.53;1.23;;;;;;;18.70;64.75;97344.06;20066151;29;20383;-54
2022/12/27 06:14:54;;;;;;;2.37;0.90;;;;;;;18.60;61.47;97342.13;20074004;29;20301;-55
2022/12/27 06:24:53;;;;;;;2.00;0.70;;;;;;;18.10;57.58;97350.06;20075253;29;20233;-53
2022/12/27 06:34:51;;;;;;;1.87;0.93;;;;;;;19.05;56.84;97346.00;20130267;29;20224;-55
2022/12/27 06:44:50;;;;;;;2.40;0.90;;;;;;;19.42;57.15;97362.78;20160515;29;20220;-54
2022/12/27 06:54:48;;;;;;;2.10;0.90;;;;;;;19.61;56.85;97361.16;20110487;29;20222;-53
2022/12/27 07:04:47;;;;;;;0.70;0.70;;;;;;;19.65;57.77;97367.66;20088674;29;20307;-50
2022/12/27 07:14:45;;;;;;;3.93;0.90;;;;;;;19.71;57.56;97385.53;20070694;29;20221;-52
2022/12/27 07:24:47;;;;;;;2.67;0.63;;;;;;;19.60;58.29;97391.25;20083126;29;20217;-41
2022/12/27 07:34:45;;;;;;;5.40;1.00;;;;;;;19.49;58.65;97399.38;20093878;29;20224;-44
2022/12/27 07:44:44;;;;;;;2.87;0.90;;;;;;;19.44;58.82;97399.38;20106210;29;20247;-43
2022/12/27 07:54:42;;;;;;;5.97;0.97;;;;;;;19.47;59.10;97400.72;20099475;29;20232;-44
2022/12/27 08:04:42;;;;;;;4.80;0.97;;;;;;;19.34;59.55;97406.63;20122344;29;20542;-51
2022/12/27 08:14:40;;;;;;;6.03;1.67;;;;;;;19.27;60.15;97403.38;20074265;29;20357;-52
2022/12/27 08:24:40;;;;;;;5.57;0.90;;;;;;;19.33;60.21;97396.88;20074989;29;20284;-50
2022/12/27 08:34:38;;;;;;;3.83;0.90;;;;;;;19.60;59.60;97396.66;20120322;29;20292;-50
2022/12/27 08:44:37;;;;;;;2.97;1.20;;;;;;;19.68;59.83;97402.34;20071767;29;20237;-54
2022/12/27 08:54:37;;;;;;;3.93;1.20;;;;;;;19.70;59.54;97411.00;20080458;29;20217;-54
2022/12/27 09:04:37;;;;;;;5.07;1.27;;;;;;;19.73;59.72;97405.03;20078080;29;20237;-59
2022/12/27 09:14:35;;;;;;;3.63;1.00;;;;;;;19.71;59.86;97411.81;20076838;29;20288;-58
2022/12/27 09:24:34;;;;;;;4.17;1.27;;;;;;;19.74;59.47;97430.22;20076806;29;20213;-59
2022/12/27 15:16:09;;;;;;;46.43;12.60;;;;;;;19.19;60.44;97352.50;21110012;27;20824;-68
2022/12/27 15:26:22;;;;;;;52.83;12.90;;;;;;;19.40;60.64;97336.00;21108182;28;20213;-60
2022/12/27 15:36:39;;;;;;;52.67;15.13;;;;;;;19.32;60.54;97319.47;21106916;28;20216;-60
2022/12/27 15:47:04;;;;;;;55.13;15.97;;;;;;;19.20;60.61;97316.22;21104923;28;20223;-62
2022/12/27 15:57:23;;;;;;;56.07;14.47;;;;;;;19.18;61.26;97305.66;21103696;28;20224;-61
2022/12/27 16:27:35;;;;;;;45.63;13.43;;;;;;;19.23;60.94;97315.69;21108894;27;20813;-57
2022/12/27 16:37:39;;;;;;;42.80;12.20;;;;;;;19.21;61.04;97324.06;21107080;28;20286;-58
2022/12/27 16:48:06;;;;;;;48.20;12.40;;;;;;;19.20;61.33;97321.63;21107260;27;20222;-56
2022/12/27 16:58:33;;;;;;;42.83;11.53;;;;;;;19.20;61.29;97313.50;21106319;28;20393;-55
2022/12/27 17:08:32;;;;;;;38.97;11.70;;;;;;;19.15;61.63;97308.91;21104322;28;20221;-55
2022/12/27 17:18:34;;;;;;;37.53;11.13;;;;;;;19.16;61.74;97304.28;21104539;27;20227;-53
2022/12/27 17:28:40;;;;;;;35.07;10.67;;;;;;;19.14;62.02;97282.94;21047650;28;20520;-56
2022/12/27 17:38:51;;;;;;;37.97;10.83;;;;;;;19.21;62.14;97278.03;21045922;28;20221;-56
2022/12/27 17:48:53;;;;;;;34.73;10.90;;;;;;;19.57;62.05;97246.28;21047483;28;20217;-54
2022/12/27 17:58:51;;;;;;;35.83;11.40;;;;;;;19.70;61.48;97264.66;21045409;28;20213;-56
2022/12/27 18:08:58;;;;;;;33.13;10.63;;;;;;;19.67;61.67;97257.09;21044382;28;20209;-55
2022/12/27 18:18:58;;;;;;;34.63;10.20;;;;;;;19.64;61.89;97248.69;21043642;28;20224;-60
2022/12/27 18:28:58;;;;;;;30.00;9.83;;;;;;;19.65;62.21;97247.63;21052032;28;20232;-55
2022/12/27 18:38:58;;;;;;;31.23;9.93;;;;;;;19.60;62.16;97229.47;21041168;28;20571;-57
2022/12/27 18:48:58;;;;;;;33.47;10.87;;;;;;;19.57;62.14;97218.41;21041172;28;20225;-54
2022/12/27 18:59:01;;;;;;;31.20;9.47;;;;;;;19.54;62.14;97209.72;21040319;28;20395;-57
2022/12/27 19:09:01;;;;;;;29.53;10.03;;;;;;;19.55;62.36;97194.28;21039547;28;20328;-58
2022/12/27 19:19:09;;;;;;;22.13;8.70;;;;;;;19.52;62.35;97205.69;21038089;28;20300;-56
2022/12/27 19:29:15;;;;;;;27.33;9.73;;;;;;;19.50;62.10;97191.59;21038327;28;20283;-57
2022/12/27 19:39:19;;;;;;;27.90;8.73;;;;;;;19.51;62.30;97187.78;21038097;28;20489;-58
2022/12/27 19:49:19;;;;;;;22.43;8.10;;;;;;;19.58;61.77;97174.78;21049989;28;20221;-58
2022/12/27 19:59:37;;;;;;;25.03;8.97;;;;;;;19.67;61.82;97166.88;21047988;28;20217;-55
2022/12/27 20:09:36;;;;;;;23.97;9.10;;;;;;;19.66;62.09;97154.44;21041972;28;20248;-57
2022/12/27 20:19:34;;;;;;;26.97;9.47;;;;;;;19.60;62.11;97150.13;21037777;28;20221;-58
2022/12/27 20:29:34;;;;;;;20.50;8.70;;;;;;;19.50;62.04;97146.38;21054216;28;20221;-59
2022/12/27 20:39:34;;;;;;;22.17;8.40;;;;;;;19.43;61.91;97135.03;21036366;28;20248;-58
2022/12/27 20:49:33;;;;;;;23.00;8.67;;;;;;;19.38;61.92;97128.78;21034481;28;20496;-59
2022/12/27 20:59:31;;;;;;;20.77;8.23;;;;;;;19.33;62.08;97110.66;21043890;28;20287;-58
2022/12/27 21:09:32;;;;;;;21.37;8.40;;;;;;;19.29;62.03;97109.63;21049757;28;20236;-58
2022/12/27 21:19:31;;;;;;;18.00;7.33;;;;;;;19.25;62.10;97113.94;21049042;28;20221;-58
2022/12/27 21:29:33;;;;;;;17.93;7.30;;;;;;;19.22;61.99;97122.63;21048217;28;20228;-58
2022/12/27 21:39:32;;;;;;;21.47;8.40;;;;;;;19.21;62.10;97118.28;21050003;28;20206;-58
2022/12/27 21:49:31;;;;;;;19.90;7.67;;;;;;;19.20;62.02;97119.41;21049993;28;20225;-59
2022/12/27 21:59:29;;;;;;;19.23;8.00;;;;;;;19.19;61.94;97119.66;21046138;28;20502;-58
